createdAt,value
2022-12-18T00:02:18.516Z,-4.51
2022-12-18T00:04:48.086Z,-4.55
2022-12-18T00:07:17.248Z,-4.56
2022-12-18T00:09:47.718Z,-4.64
2022-12-18T00:14:52.958Z,-4.67
2022-12-18T00:17:22.375Z,-4.70
2022-12-18T00:19:51.945Z,-4.76
2022-12-18T00:22:21.273Z,-4.69
2022-12-18T00:24:50.697Z,-4.73
2022-12-18T00:27:21.242Z,-4.81
2022-12-18T00:29:51.340Z,-4.79
2022-12-18T00:32:20.640Z,-4.80
2022-12-18T00:34:50.027Z,-4.86
2022-12-18T00:37:20.346Z,-4.89
2022-12-18T00:39:53.917Z,-4.90
2022-12-18T00:42:42.098Z,-4.95
2022-12-18T00:45:13.107Z,-4.84
2022-12-18T00:47:42.892Z,-4.83
2022-12-18T00:50:12.698Z,-4.87
2022-12-18T00:52:41.903Z,-4.84
2022-12-18T00:55:11.849Z,-4.83
2022-12-18T00:57:42.803Z,-4.90
2022-12-18T01:00:15.984Z,-4.88
2022-12-18T01:02:45.635Z,-4.88
2022-12-18T01:05:16.512Z,-4.86
2022-12-18T01:07:45.754Z,-4.85
2022-12-18T01:10:15.717Z,-4.95
2022-12-18T01:12:47.075Z,-4.90
2022-12-18T01:15:17.407Z,-4.84
2022-12-18T01:17:46.573Z,-4.86
2022-12-18T01:20:16.759Z,-4.86
2022-12-18T01:22:46.035Z,-4.83
2022-12-18T01:25:15.423Z,-4.85
2022-12-18T01:27:47.548Z,-4.87
2022-12-18T01:30:17.144Z,-4.85
2022-12-18T01:32:46.471Z,-4.87
2022-12-18T01:35:15.909Z,-4.85
2022-12-18T01:37:45.081Z,-4.84
2022-12-18T01:40:15.072Z,-4.91
2022-12-18T01:42:44.224Z,-4.87
2022-12-18T01:45:30.612Z,-4.87
2022-12-18T01:48:02.671Z,-4.88
2022-12-18T01:50:35.047Z,-4.93
2022-12-18T01:53:08.634Z,-4.91
2022-12-18T01:55:44.782Z,-4.87
2022-12-18T01:58:15.714Z,-4.93
2022-12-18T02:00:46.881Z,-4.89
2022-12-18T02:03:16.448Z,-4.99
2022-12-18T02:05:51.588Z,-5.00
2022-12-18T02:08:26.626Z,-5.04
2022-12-18T02:11:07.120Z,-4.99
2022-12-18T02:13:46.073Z,-5.07
2022-12-18T02:16:23.893Z,-5.03
2022-12-18T02:19:08.898Z,-5.01
2022-12-18T02:22:05.944Z,-5.00
2022-12-18T02:24:43.467Z,-4.97
2022-12-18T02:27:15.398Z,-4.97
2022-12-18T02:29:56.029Z,-4.91
2022-12-18T02:32:29.761Z,-4.89
2022-12-18T02:35:00.601Z,-4.91
2022-12-18T02:37:33.635Z,-4.89
2022-12-18T02:40:07.479Z,-4.88
2022-12-18T02:42:40.755Z,-4.83
2022-12-18T02:45:12.470Z,-4.77
2022-12-18T02:47:45.557Z,-4.73
2022-12-18T02:50:24.771Z,-4.70
2022-12-18T02:53:08.649Z,-4.77
2022-12-18T02:55:55.844Z,-4.77
2022-12-18T02:58:34.211Z,-4.71
2022-12-18T03:01:16.231Z,-4.71
2022-12-18T03:03:52.264Z,-4.68
2022-12-18T03:06:27.559Z,-4.66
2022-12-18T03:09:01.649Z,-4.65
2022-12-18T03:11:52.742Z,-4.67
2022-12-18T03:14:26.368Z,-4.60
2022-12-18T03:17:00.292Z,-4.63
2022-12-18T03:19:34.036Z,-4.60
2022-12-18T03:22:08.167Z,-4.57
2022-12-18T03:24:48.600Z,-4.55
2022-12-18T03:27:20.877Z,-4.59
2022-12-18T03:33:56.130Z,-4.43
2022-12-18T03:36:32.635Z,-4.43
2022-12-18T03:39:02.067Z,-4.43
2022-12-18T03:41:35.821Z,-4.36
2022-12-18T03:44:34.604Z,-4.30
2022-12-18T03:47:10.089Z,-4.27
2022-12-18T03:49:47.221Z,-4.23
2022-12-18T03:52:26.295Z,-4.13
2022-12-18T03:54:59.438Z,-4.10
2022-12-18T03:57:33.141Z,-4.03
2022-12-18T04:00:06.703Z,-3.98
2022-12-18T04:02:48.308Z,-3.96
2022-12-18T04:05:28.339Z,-3.92
2022-12-18T04:07:59.509Z,-3.89
2022-12-18T04:10:30.025Z,-3.86
2022-12-18T04:13:01.194Z,-3.83
2022-12-18T04:15:31.426Z,-3.79
2022-12-18T04:18:03.262Z,-3.75
2022-12-18T04:20:39.514Z,-3.75
2022-12-18T04:23:09.074Z,-3.69
2022-12-18T04:25:39.441Z,-3.66
2022-12-18T04:28:13.136Z,-3.65
2022-12-18T04:30:42.638Z,-3.60
2022-12-18T04:33:15.701Z,-3.58
2022-12-18T04:35:45.456Z,-3.59
2022-12-18T04:38:15.998Z,-3.58
2022-12-18T04:40:45.630Z,-3.57
2022-12-18T04:43:23.908Z,-3.53
2022-12-18T04:45:53.202Z,-3.53
2022-12-18T04:48:24.219Z,-3.56
2022-12-18T04:50:53.477Z,-3.54
2022-12-18T04:53:22.908Z,-3.58
2022-12-18T04:55:52.257Z,-3.60
2022-12-18T04:58:21.907Z,-3.61
2022-12-18T05:00:51.057Z,-3.61
2022-12-18T05:03:22.073Z,-3.60
2022-12-18T05:05:53.131Z,-3.63
2022-12-18T05:08:22.865Z,-3.65
2022-12-18T05:10:52.149Z,-3.68
2022-12-18T05:13:21.659Z,-3.68
2022-12-18T05:15:54.991Z,-3.73
2022-12-18T05:18:26.562Z,-3.74
2022-12-18T05:20:56.499Z,-3.70
2022-12-18T05:23:27.201Z,-3.74
2022-12-18T05:25:58.106Z,-3.78
2022-12-18T05:28:29.065Z,-3.82
2022-12-18T05:31:01.045Z,-3.82
2022-12-18T05:33:33.734Z,-3.80
2022-12-18T05:36:08.713Z,-3.77
2022-12-18T05:38:40.265Z,-3.79
2022-12-18T05:41:09.862Z,-3.79
2022-12-18T05:43:40.282Z,-3.77
2022-12-18T05:46:13.491Z,-3.84
2022-12-18T05:48:44.873Z,-3.83
2022-12-18T05:51:15.652Z,-3.82
2022-12-18T05:53:46.243Z,-3.84
2022-12-18T05:56:16.200Z,-3.84
2022-12-18T05:58:46.165Z,-3.90
2022-12-18T06:01:17.112Z,-3.86
2022-12-18T06:03:48.289Z,-3.84
2022-12-18T06:06:19.959Z,-3.88
2022-12-18T06:08:52.224Z,-3.83
2022-12-18T06:11:23.891Z,-3.86
2022-12-18T06:13:58.224Z,-3.88
2022-12-18T06:16:28.570Z,-3.89
2022-12-18T06:19:01.102Z,-3.89
2022-12-18T06:21:31.941Z,-3.88
2022-12-18T06:24:02.902Z,-3.86
2022-12-18T06:26:31.871Z,-3.85
2022-12-18T06:29:01.278Z,-3.85
2022-12-18T06:31:30.484Z,-3.90
2022-12-18T06:34:01.696Z,-3.83
2022-12-18T06:36:31.479Z,-3.84
2022-12-18T06:39:01.119Z,-3.88
2022-12-18T06:41:30.246Z,-3.83
2022-12-18T06:44:00.784Z,-3.84
2022-12-18T06:46:30.136Z,-3.91
2022-12-18T06:49:01.009Z,-3.86
2022-12-18T06:51:30.268Z,-3.89
2022-12-18T06:53:59.742Z,-3.83
2022-12-18T06:56:29.157Z,-3.85
2022-12-18T06:58:58.832Z,-3.79
2022-12-18T07:01:28.057Z,-3.72
2022-12-18T07:03:58.922Z,-3.75
2022-12-18T07:06:29.734Z,-3.75
2022-12-18T07:08:59.173Z,-3.74
2022-12-18T07:11:28.422Z,-3.74
2022-12-18T07:13:57.889Z,-3.73
2022-12-18T07:16:29.387Z,-3.69
2022-12-18T07:18:59.510Z,-3.72
2022-12-18T07:21:30.233Z,-3.73
2022-12-18T07:24:00.302Z,-3.77
2022-12-18T07:26:29.454Z,-3.73
2022-12-18T07:28:59.860Z,-3.71
2022-12-18T07:31:29.158Z,-3.69
2022-12-18T07:33:59.358Z,-3.83
2022-12-18T07:36:30.187Z,-3.75
2022-12-18T07:38:59.908Z,-3.77
2022-12-18T07:41:29.039Z,-3.74
2022-12-18T07:43:58.609Z,-3.74
2022-12-18T07:46:27.831Z,-3.73
2022-12-18T07:48:58.681Z,-3.76
2022-12-18T07:51:27.831Z,-3.74
2022-12-18T07:53:59.850Z,-3.74
2022-12-18T07:56:31.249Z,-3.78
2022-12-18T07:59:04.190Z,-3.75
2022-12-18T08:01:33.578Z,-3.75
2022-12-18T08:04:03.172Z,-3.73
2022-12-18T08:06:32.665Z,-3.69
2022-12-18T08:09:03.657Z,-3.70
2022-12-18T08:11:33.101Z,-3.66
2022-12-18T08:14:02.557Z,-3.68
2022-12-18T08:16:32.184Z,-3.70
2022-12-18T08:19:01.529Z,-3.60
2022-12-18T08:21:32.729Z,-3.64
2022-12-18T08:24:04.909Z,-3.61
2022-12-18T08:26:34.265Z,-3.56
2022-12-18T08:29:03.751Z,-3.50
2022-12-18T08:31:34.042Z,-3.45
2022-12-18T08:34:03.531Z,-3.39
2022-12-18T08:36:32.803Z,-3.35
2022-12-18T08:39:03.884Z,-3.31
2022-12-18T08:41:33.411Z,-3.28
2022-12-18T08:44:20.639Z,-3.25
2022-12-18T08:46:49.955Z,-3.22
2022-12-18T08:49:19.372Z,-3.21
2022-12-18T08:51:48.759Z,-3.19
2022-12-18T08:54:19.526Z,-3.13
2022-12-18T08:56:48.802Z,-3.08
2022-12-18T08:59:20.168Z,-3.05
2022-12-18T09:01:50.701Z,-3.02
2022-12-18T09:04:20.722Z,-3.02
2022-12-18T09:06:50.025Z,-3.03
2022-12-18T09:09:21.065Z,-2.98
2022-12-18T09:11:50.296Z,-2.95
2022-12-18T09:14:20.092Z,-2.82
2022-12-18T09:16:49.352Z,-2.79
2022-12-18T09:19:18.756Z,-2.76
2022-12-18T09:21:48.580Z,-2.73
2022-12-18T09:24:20.292Z,-2.63
2022-12-18T09:26:51.570Z,-2.61
2022-12-18T09:29:25.188Z,-2.55
2022-12-18T09:31:54.740Z,-2.45
2022-12-18T09:34:24.163Z,-2.41
2022-12-18T09:36:53.515Z,-2.41
2022-12-18T09:39:24.522Z,-2.38
2022-12-18T09:41:57.126Z,-2.30
2022-12-18T09:44:30.104Z,-2.32
2022-12-18T09:47:14.499Z,-2.25
2022-12-18T09:49:47.504Z,-2.24
2022-12-18T09:52:21.812Z,-2.15
2022-12-18T09:54:57.374Z,-2.09
2022-12-18T09:57:28.068Z,-1.98
2022-12-18T10:00:01.495Z,-1.97
2022-12-18T10:02:40.936Z,-1.95
2022-12-18T10:05:14.084Z,-1.90
2022-12-18T10:07:54.367Z,-1.89
2022-12-18T10:10:29.580Z,-1.92
2022-12-18T10:13:10.541Z,-1.91
2022-12-18T10:15:49.164Z,-1.88
2022-12-18T10:18:32.324Z,-1.84
2022-12-18T10:21:11.840Z,-1.89
2022-12-18T10:23:49.975Z,-1.84
2022-12-18T10:26:21.793Z,-1.80
2022-12-18T10:28:53.338Z,-1.73
2022-12-18T10:31:25.485Z,-1.66
2022-12-18T10:33:56.614Z,-1.72
2022-12-18T10:36:27.492Z,-1.62
2022-12-18T10:39:10.019Z,-1.66
2022-12-18T10:41:41.261Z,-1.64
2022-12-18T10:44:18.442Z,-1.60
2022-12-18T10:46:50.212Z,-1.60
2022-12-18T10:49:25.263Z,-1.53
2022-12-18T10:52:06.653Z,-1.51
2022-12-18T10:54:37.602Z,-1.46
2022-12-18T10:57:36.010Z,-1.37
2022-12-18T11:00:28.905Z,-1.36
2022-12-18T11:03:00.336Z,-1.28
2022-12-18T11:05:32.786Z,-1.25
2022-12-18T11:08:03.316Z,-1.18
2022-12-18T11:10:35.764Z,-1.24
2022-12-18T11:13:22.612Z,-1.20
2022-12-18T11:15:52.846Z,-1.22
2022-12-18T11:18:28.289Z,-1.16
2022-12-18T11:21:00.634Z,-1.12
2022-12-18T11:23:30.666Z,-1.11
2022-12-18T11:26:03.250Z,-0.99
2022-12-18T11:28:42.040Z,-0.96
2022-12-18T11:31:25.450Z,-0.91
2022-12-18T11:36:53.286Z,-0.94
2022-12-18T11:39:26.854Z,-0.95
2022-12-18T11:42:12.429Z,-0.96
2022-12-18T11:44:49.688Z,-0.94
2022-12-18T11:47:27.958Z,-0.95
2022-12-18T11:50:02.231Z,-0.91
2022-12-18T11:52:40.559Z,-0.90
2022-12-18T11:55:16.186Z,-0.83
2022-12-18T11:57:57.389Z,-0.82
2022-12-18T12:00:28.993Z,-0.78
2022-12-18T12:03:27.919Z,-0.81
2022-12-18T12:06:09.100Z,-0.70
2022-12-18T12:08:55.183Z,-0.72
2022-12-18T12:11:35.744Z,-0.78
2022-12-18T12:14:31.224Z,-0.73
2022-12-18T12:17:13.385Z,-0.66
2022-12-18T12:19:50.404Z,-0.61
2022-12-18T12:22:30.293Z,-0.63
2022-12-18T12:25:21.164Z,-0.61
2022-12-18T12:28:02.328Z,-0.61
2022-12-18T12:30:40.178Z,-0.62
2022-12-18T12:33:24.448Z,-0.64
2022-12-18T12:36:03.156Z,-0.68
2022-12-18T12:38:37.748Z,-0.70
2022-12-18T12:41:30.733Z,-0.69
2022-12-18T12:44:02.959Z,-0.64
2022-12-18T12:46:37.657Z,-0.71
2022-12-18T12:49:16.655Z,-0.73
2022-12-18T12:51:50.677Z,-0.67
2022-12-18T12:54:24.665Z,-0.70
2022-12-18T12:57:00.124Z,-0.71
2022-12-18T12:59:39.758Z,-0.68
2022-12-18T13:02:22.454Z,-0.70
2022-12-18T13:05:03.339Z,-0.80
2022-12-18T13:07:41.096Z,-0.76
2022-12-18T13:10:28.080Z,-0.74
2022-12-18T13:12:58.806Z,-0.75
2022-12-18T13:15:33.783Z,-0.74
2022-12-18T13:18:21.910Z,-0.79
2022-12-18T13:21:04.500Z,-0.94
2022-12-18T13:23:39.125Z,-0.93
2022-12-18T13:26:39.039Z,-0.91
2022-12-18T13:29:08.906Z,-0.95
2022-12-18T13:32:24.456Z,-0.95
2022-12-18T13:35:27.907Z,-0.88
2022-12-18T13:37:59.011Z,-0.82
2022-12-18T13:40:58.408Z,-0.94
2022-12-18T13:43:39.018Z,-0.90
2022-12-18T13:46:21.914Z,-1.07
2022-12-18T13:49:03.933Z,-1.09
2022-12-18T13:51:37.252Z,-1.12
2022-12-18T13:54:20.841Z,-1.17
2022-12-18T13:56:51.797Z,-1.24
2022-12-18T13:59:24.766Z,-1.29
2022-12-18T14:01:57.694Z,-1.33
2022-12-18T14:04:30.869Z,-1.37
2022-12-18T14:07:05.024Z,-1.39
2022-12-18T14:09:40.555Z,-1.44
2022-12-18T14:12:34.224Z,-1.43
2022-12-18T14:15:04.909Z,-1.59
2022-12-18T14:17:38.485Z,-1.54
2022-12-18T14:20:16.641Z,-1.62
2022-12-18T14:22:48.185Z,-1.74
2022-12-18T14:25:21.952Z,-1.71
2022-12-18T14:27:54.521Z,-1.77
2022-12-18T14:30:30.111Z,-1.83
2022-12-18T14:33:07.789Z,-1.90
2022-12-18T14:35:40.563Z,-2.03
2022-12-18T14:38:22.415Z,-2.08
2022-12-18T14:40:58.523Z,-2.07
2022-12-18T14:43:28.674Z,-2.08
2022-12-18T14:45:59.759Z,-2.13
2022-12-18T14:48:38.816Z,-2.11
2022-12-18T14:51:18.334Z,-2.12
2022-12-18T14:53:54.282Z,-2.27
2022-12-18T14:56:29.192Z,-2.35
2022-12-18T14:59:01.206Z,-2.28
2022-12-18T15:01:34.522Z,-2.38
2022-12-18T15:04:05.615Z,-2.52
2022-12-18T15:06:38.514Z,-2.50
2022-12-18T15:09:23.457Z,-2.59
2022-12-18T15:11:59.744Z,-2.74
2022-12-18T15:14:42.206Z,-2.76
2022-12-18T15:17:20.140Z,-2.73
2022-12-18T15:19:51.138Z,-2.76
2022-12-18T15:22:27.774Z,-2.79
2022-12-18T15:24:58.147Z,-2.85
2022-12-18T15:27:36.572Z,-2.95
2022-12-18T15:30:20.384Z,-2.97
2022-12-18T15:32:51.031Z,-2.93
2022-12-18T15:35:23.036Z,-3.05
2022-12-18T15:37:55.118Z,-3.00
2022-12-18T15:40:26.036Z,-3.00
2022-12-18T15:43:15.581Z,-3.11
2022-12-18T15:45:44.878Z,-3.17
2022-12-18T15:48:23.209Z,-3.20
2022-12-18T15:50:57.878Z,-3.24
2022-12-18T15:53:31.757Z,-3.34
2022-12-18T15:56:18.594Z,-3.32
2022-12-18T15:58:49.915Z,-3.54
2022-12-18T16:01:22.777Z,-3.53
2022-12-18T16:03:52.674Z,-3.51
2022-12-18T16:06:21.811Z,-3.59
2022-12-18T16:08:51.465Z,-3.63
2022-12-18T16:11:39.243Z,-3.68
2022-12-18T16:14:20.457Z,-3.83
2022-12-18T16:16:51.433Z,-3.83
2022-12-18T16:19:22.189Z,-3.86
2022-12-18T16:21:53.044Z,-3.93
2022-12-18T16:24:24.227Z,-3.97
2022-12-18T16:26:54.195Z,-4.10
2022-12-18T16:29:28.095Z,-4.10
2022-12-18T16:31:58.138Z,-4.21
2022-12-18T16:34:29.780Z,-4.23
2022-12-18T16:37:05.631Z,-4.26
2022-12-18T16:39:37.379Z,-4.30
2022-12-18T16:42:09.161Z,-4.49
2022-12-18T16:44:40.286Z,-4.47
2022-12-18T16:47:11.061Z,-4.52
2022-12-18T16:49:43.753Z,-4.58
2022-12-18T16:52:13.146Z,-4.61
2022-12-18T16:54:42.884Z,-4.72
2022-12-18T16:57:15.300Z,-4.77
2022-12-18T16:59:46.763Z,-4.83
2022-12-18T17:02:19.100Z,-4.99
2022-12-18T17:04:54.680Z,-4.97
2022-12-18T17:07:25.007Z,-5.11
2022-12-18T17:09:55.544Z,-5.11
2022-12-18T17:12:25.146Z,-5.16
2022-12-18T17:14:55.981Z,-5.24
2022-12-18T17:17:25.933Z,-5.29
2022-12-18T17:19:55.349Z,-5.28
2022-12-18T17:22:24.662Z,-5.30
2022-12-18T17:24:54.020Z,-5.34
2022-12-18T17:27:23.443Z,-5.29
2022-12-18T17:29:52.601Z,-5.40
2022-12-18T17:32:23.447Z,-5.37
2022-12-18T17:34:52.726Z,-5.43
2022-12-18T17:37:22.405Z,-5.52
2022-12-18T17:39:51.746Z,-5.44
2022-12-18T17:42:21.319Z,-5.45
2022-12-18T17:44:50.621Z,-5.47
2022-12-18T17:47:20.182Z,-5.48
2022-12-18T17:49:52.253Z,-5.50
2022-12-18T17:52:23.419Z,-5.57
2022-12-18T17:54:52.798Z,-5.60
2022-12-18T17:57:22.455Z,-5.64
2022-12-18T17:59:54.501Z,-5.69
2022-12-18T18:02:25.158Z,-5.94
2022-12-18T18:04:56.444Z,-5.98
2022-12-18T18:07:26.027Z,-6.12
2022-12-18T18:10:49.872Z,-6.09
2022-12-18T18:14:51.228Z,-6.20
2022-12-18T18:17:23.295Z,-6.13
2022-12-18T18:20:47.447Z,-6.15
2022-12-18T18:23:23.217Z,-6.16
2022-12-18T18:25:52.799Z,-6.30
2022-12-18T18:28:23.095Z,-6.38
2022-12-18T18:30:52.371Z,-6.31
2022-12-18T18:33:22.185Z,-6.38
2022-12-18T18:35:54.813Z,-6.38
2022-12-18T18:38:26.240Z,-6.54
2022-12-18T18:41:00.482Z,-6.59
2022-12-18T18:43:30.998Z,-6.53
2022-12-18T18:46:01.814Z,-6.45
2022-12-18T18:48:35.658Z,-6.41
2022-12-18T18:51:09.396Z,-6.36
2022-12-18T18:53:45.004Z,-6.45
2022-12-18T18:56:50.141Z,-6.45
2022-12-18T18:59:07.059Z,-6.41
2022-12-18T19:01:36.647Z,-6.32
2022-12-18T19:04:07.936Z,-6.41
2022-12-18T19:06:37.380Z,-6.54
2022-12-18T19:09:09.136Z,-6.50
2022-12-18T19:11:57.074Z,-6.56
2022-12-18T19:14:26.899Z,-6.55
2022-12-18T19:16:56.155Z,-6.65
2022-12-18T19:19:27.126Z,-6.63
2022-12-18T19:21:56.442Z,-6.61
2022-12-18T19:24:27.601Z,-6.63
2022-12-18T19:26:58.117Z,-6.64
2022-12-18T19:29:27.897Z,-6.73
2022-12-18T19:31:57.046Z,-6.61
2022-12-18T19:34:26.896Z,-6.67
2022-12-18T19:36:59.955Z,-6.67
2022-12-18T19:39:31.415Z,-6.70
2022-12-18T19:42:00.700Z,-6.56
2022-12-18T19:44:30.153Z,-6.69
2022-12-18T19:46:59.528Z,-6.70
2022-12-18T19:49:28.950Z,-6.81
2022-12-18T19:51:58.584Z,-6.76
2022-12-18T19:54:28.225Z,-6.70
2022-12-18T19:56:58.900Z,-6.78
2022-12-18T19:59:28.535Z,-6.81
2022-12-18T20:01:57.889Z,-6.77
2022-12-18T20:04:27.561Z,-6.80
2022-12-18T20:06:57.676Z,-6.88
2022-12-18T20:09:27.287Z,-6.86
2022-12-18T20:11:57.937Z,-6.88
2022-12-18T20:14:27.711Z,-6.91
2022-12-18T20:16:57.839Z,-6.97
2022-12-18T20:19:30.026Z,-6.98
2022-12-18T20:21:59.345Z,-6.97
2022-12-18T20:24:28.887Z,-7.17
2022-12-18T20:26:59.885Z,-7.14
2022-12-18T20:29:29.446Z,-7.14
2022-12-18T20:31:58.696Z,-7.19
2022-12-18T20:34:28.187Z,-7.17
2022-12-18T20:36:57.620Z,-7.12
2022-12-18T20:39:27.609Z,-7.13
2022-12-18T20:41:58.586Z,-7.22
2022-12-18T20:44:28.546Z,-7.27
2022-12-18T20:47:00.295Z,-7.25
2022-12-18T20:49:33.556Z,-7.22
2022-12-18T20:52:03.937Z,-7.26
2022-12-18T20:54:33.787Z,-7.26
2022-12-18T20:57:04.612Z,-7.31
2022-12-18T20:59:34.286Z,-7.40
2022-12-18T21:02:03.649Z,-7.43
2022-12-18T21:04:33.337Z,-7.42
2022-12-18T21:07:03.086Z,-7.29
2022-12-18T21:09:37.549Z,-7.30
2022-12-18T21:12:40.274Z,-7.34
2022-12-18T21:15:18.252Z,-7.31
2022-12-18T21:17:47.696Z,-7.27
2022-12-18T21:20:18.544Z,-7.28
2022-12-18T21:22:50.351Z,-7.27
2022-12-18T21:25:19.964Z,-7.28
2022-12-18T21:27:50.713Z,-7.23
2022-12-18T21:30:20.567Z,-7.16
2022-12-18T21:32:50.071Z,-7.19
2022-12-18T21:35:20.003Z,-7.29
2022-12-18T21:37:51.434Z,-7.25
2022-12-18T21:40:20.935Z,-7.23
2022-12-18T21:43:09.003Z,-7.25
2022-12-18T21:45:38.759Z,-7.15
2022-12-18T21:48:08.141Z,-7.11
2022-12-18T21:50:37.697Z,-7.11
2022-12-18T21:53:07.058Z,-7.13
2022-12-18T21:55:36.662Z,-7.13
2022-12-18T21:58:09.596Z,-7.13
2022-12-18T22:00:39.106Z,-7.12
2022-12-18T22:03:18.821Z,-7.17
2022-12-18T22:05:50.598Z,-7.21
2022-12-18T22:08:31.539Z,-7.24
2022-12-18T22:11:01.122Z,-7.28
2022-12-18T22:13:31.680Z,-7.33
2022-12-18T22:16:01.139Z,-7.37
2022-12-18T22:18:30.373Z,-7.38
2022-12-18T22:21:03.286Z,-7.43
2022-12-18T22:23:33.177Z,-7.52
2022-12-18T22:26:02.586Z,-7.51
2022-12-18T22:28:51.581Z,-7.62
2022-12-18T22:31:21.120Z,-7.74
2022-12-18T22:33:51.163Z,-7.66
2022-12-18T22:36:20.711Z,-7.67
2022-12-18T22:38:51.597Z,-7.70
2022-12-18T22:41:23.280Z,-7.89
2022-12-18T22:43:53.766Z,-7.84
2022-12-18T22:46:25.139Z,-7.80
2022-12-18T22:48:54.669Z,-7.88
2022-12-18T22:51:24.098Z,-7.87
2022-12-18T22:53:53.378Z,-7.89
2022-12-18T22:56:24.783Z,-8.01
2022-12-18T22:58:55.292Z,-8.05
2022-12-18T23:01:27.485Z,-8.04
2022-12-18T23:03:56.838Z,-8.07
2022-12-18T23:06:28.127Z,-8.08
2022-12-18T23:08:58.711Z,-8.05
2022-12-18T23:11:28.555Z,-8.10
2022-12-18T23:13:59.178Z,-8.06
2022-12-18T23:16:29.428Z,-7.94
2022-12-18T23:18:58.809Z,-8.00
2022-12-18T23:21:28.425Z,-8.01
2022-12-18T23:23:58.438Z,-7.97
2022-12-18T23:26:28.038Z,-7.99
2022-12-18T23:28:58.974Z,-7.94
2022-12-18T23:31:30.897Z,-7.93
2022-12-18T23:34:01.894Z,-7.85
2022-12-18T23:36:33.987Z,-7.80
2022-12-18T23:39:28.886Z,-7.74
2022-12-18T23:42:00.350Z,-7.64
2022-12-18T23:44:31.414Z,-7.56
2022-12-18T23:47:00.984Z,-7.53
2022-12-18T23:49:30.134Z,-7.46
2022-12-18T23:52:00.144Z,-7.44
2022-12-18T23:54:33.557Z,-7.41
2022-12-18T23:57:03.717Z,-7.35
2022-12-18T23:59:34.216Z,-7.35
